Sea Cloud II — 9HUE6 — position and weather

sailwx.info

Track history (hours):
 
Tides and Currents Weather Stations Pressure Air Temp Water Temp Dewpoint Dewpoint Depression Visibility Wind Speed Wind Dir Waves Ship Positions

Sea Cloud II

Ship's website: http://www.seacloud.com/en/the-ships/sea-cloud-ii.html

Last reported at 2016-May-23 22:13 UTC. Time now 2016-May-24 13:51 UTC.
Position N 39°21' W 009°43'.

Length 117 m; draft 5.9 m.

Type: Passenger vessel. MMSI: 248953000.

Date/timePositionNaut miles runAvg speedWind from/ knotsBaromVisibWave heightAir tempDewpointWater temp
2016-May-23 22:13N 39°21' W 009°43'1111.8
2016-May-23 21:17N 39°10' W 009°43'911.8
2016-May-23 20:33N 39°02' W 009°43'1211.6
2016-May-23 19:33N 38°50' W 009°42'1110.9
2016-May-23 18:33N 38°39' W 009°40'1111.3
2016-May-23 17:34N 38°37' W 009°26'1111.4
2016-May-23 16:33N 38°41' W 009°13'4 2.1
2016-May-23 14:30N 38°43' W 009°07'0 0.0
2016-May-23 13:09N 38°43' W 009°07'0 0.0
2016-May-23 12:18N 38°43' W 009°07'0 0.0
2016-May-23 11:33N 38°43' W 009°07'0 0.0
2016-May-23 10:33N 38°43' W 009°07'0 0.0
2016-May-23 09:33N 38°43' W 009°07'0 0.0
2016-May-23 08:24N 38°43' W 009°07'0 0.0
2016-May-23 07:24N 38°43' W 009°07'0 0.4
2016-May-23 06:33N 38°42' W 009°08'7 6.7
2016-May-23 05:33N 38°41' W 009°16'7 6.7
2016-May-23 04:33N 38°37' W 009°23'8 7.6
2016-May-23 03:33N 38°30' W 009°25'1110.5
2016-May-23 02:33N 38°19' W 009°28'1010.4
2016-May-23 01:33N 38°09' W 009°30'1111.0
2016-May-23 00:33N 37°58' W 009°33'1110.8
2016-May-22 23:33N 37°48' W 009°36'1010.4
2016-May-22 22:33N 37°38' W 009°38'1010.4
2016-May-22 21:33N 37°27' W 009°40'1010.4
2016-May-22 20:33N 37°17' W 009°43'3711.0
2016-May-22 17:13N 36°41' W 009°51'811.2
2016-May-22 16:33N 36°34' W 009°52'214 4.9
2016-May-20 21:09N 35°59' W 005°31'610.3
2016-May-20 20:33N 36°01' W 005°24'  
2016-May-18 07:29N 37°18' W 000°58'5 5.2
2016-May-18 06:32N 37°21' W 000°53'7 7.6
2016-May-18 05:33N 37°26' W 000°46'1312.7
2016-May-18 04:33N 37°34' W 000°34'1312.5
2016-May-18 03:33N 37°45' W 000°25'1212.3
2016-May-18 02:32N 37°55' W 000°17'1412.6
2016-May-18 01:24N 38°07' W 000°07'8010.0
2016-May-17 17:27N 39°26' W 000°19'1 1.5
2016-May-17 16:32N 39°27' W 000°20'0 0.0
2016-May-17 15:32N 39°27' W 000°20'0 0.0
2016-May-17 14:32N 39°27' W 000°20'0 0.0
2016-May-17 13:32N 39°27' W 000°20'0 0.0
2016-May-17 12:32N 39°27' W 000°20'0 0.0
2016-May-17 11:32N 39°27' W 000°20'0 0.0
2016-May-17 10:29N 39°27' W 000°20'0 0.0
2016-May-17 09:32N 39°27' W 000°20'0 0.0
2016-May-17 08:32N 39°27' W 000°20'0 0.0
2016-May-17 07:32N 39°27' W 000°20'0 0.0
2016-May-17 06:32N 39°27' W 000°20'2 2.3
2016-May-17 05:33N 39°26' W 000°18'7 6.9
2016-May-17 04:33N 39°25' W 000°09'79 8.6
2016-May-16 19:18N 39°25' E 001°34'911.5
2016-May-16 18:32N 39°26' E 001°46'1311.7
2016-May-16 17:24N 39°26' E 002°03'1011.6
2016-May-16 16:33N 39°26' E 002°16'19 4.2
2016-May-16 12:08N 39°33' E 002°38'0 0.0
2016-May-16 11:26N 39°33' E 002°38'0 0.0
2016-May-16 10:32N 39°33' E 002°38'0 0.0
2016-May-16 09:32N 39°33' E 002°38'0 0.0
2016-May-16 08:32N 39°33' E 002°38'0 0.0
2016-May-16 07:32N 39°33' E 002°38'0 0.0
2016-May-16 06:32N 39°33' E 002°38'1 1.0
2016-May-16 05:33N 39°32' E 002°39'6 6.2
2016-May-16 04:33N 39°26' E 002°40'8 8.5
2016-May-16 03:33N 39°18' E 002°43'1110.9
2016-May-16 02:33N 39°08' E 002°50'9 9.4
2016-May-16 01:33N 39°07' E 003°02'1111.4
2016-May-16 00:33N 39°13' E 003°14'1511.0
2016-May-15 23:13N 39°21' E 003°30'1210.8
2016-May-15 22:05N 39°28' E 003°43'  
Track history (hours):
 
Tides and Currents Weather Stations Pressure Air Temp Water Temp Dewpoint Dewpoint Depression Visibility Wind Speed Wind Dir Waves Ship Positions

Sea Cloud II

Ship's website: http://www.seacloud.com/en/the-ships/sea-cloud-ii.html

Last reported at 2016-May-23 22:13 UTC. Time now 2016-May-24 13:51 UTC.
Position N 39°21' W 009°43'.

Length 117 m; draft 5.9 m.

Type: Passenger vessel. MMSI: 248953000.

Date/timePositionNaut miles runAvg speedWind from/ knotsBaromVisibWave heightAir tempDewpointWater temp
2016-May-23 22:13N 39°21' W 009°43'1111.8
2016-May-23 21:17N 39°10' W 009°43'911.8
2016-May-23 20:33N 39°02' W 009°43'1211.6
2016-May-23 19:33N 38°50' W 009°42'1110.9
2016-May-23 18:33N 38°39' W 009°40'1111.3
2016-May-23 17:34N 38°37' W 009°26'1111.4
2016-May-23 16:33N 38°41' W 009°13'4 2.1
2016-May-23 14:30N 38°43' W 009°07'0 0.0
2016-May-23 13:09N 38°43' W 009°07'0 0.0
2016-May-23 12:18N 38°43' W 009°07'0 0.0
2016-May-23 11:33N 38°43' W 009°07'0 0.0
2016-May-23 10:33N 38°43' W 009°07'0 0.0
2016-May-23 09:33N 38°43' W 009°07'0 0.0
2016-May-23 08:24N 38°43' W 009°07'0 0.0
2016-May-23 07:24N 38°43' W 009°07'0 0.4
2016-May-23 06:33N 38°42' W 009°08'7 6.7
2016-May-23 05:33N 38°41' W 009°16'7 6.7
2016-May-23 04:33N 38°37' W 009°23'8 7.6
2016-May-23 03:33N 38°30' W 009°25'1110.5
2016-May-23 02:33N 38°19' W 009°28'1010.4
2016-May-23 01:33N 38°09' W 009°30'1111.0
2016-May-23 00:33N 37°58' W 009°33'1110.8
2016-May-22 23:33N 37°48' W 009°36'1010.4
2016-May-22 22:33N 37°38' W 009°38'1010.4
2016-May-22 21:33N 37°27' W 009°40'1010.4
2016-May-22 20:33N 37°17' W 009°43'3711.0
2016-May-22 17:13N 36°41' W 009°51'811.2
2016-May-22 16:33N 36°34' W 009°52'214 4.9
2016-May-20 21:09N 35°59' W 005°31'610.3
2016-May-20 20:33N 36°01' W 005°24'  
2016-May-18 07:29N 37°18' W 000°58'5 5.2
2016-May-18 06:32N 37°21' W 000°53'7 7.6
2016-May-18 05:33N 37°26' W 000°46'1312.7
2016-May-18 04:33N 37°34' W 000°34'1312.5
2016-May-18 03:33N 37°45' W 000°25'1212.3
2016-May-18 02:32N 37°55' W 000°17'1412.6
2016-May-18 01:24N 38°07' W 000°07'8010.0
2016-May-17 17:27N 39°26' W 000°19'1 1.5
2016-May-17 16:32N 39°27' W 000°20'0 0.0
2016-May-17 15:32N 39°27' W 000°20'0 0.0
2016-May-17 14:32N 39°27' W 000°20'0 0.0
2016-May-17 13:32N 39°27' W 000°20'0 0.0
2016-May-17 12:32N 39°27' W 000°20'0 0.0
2016-May-17 11:32N 39°27' W 000°20'0 0.0
2016-May-17 10:29N 39°27' W 000°20'0 0.0
2016-May-17 09:32N 39°27' W 000°20'0 0.0
2016-May-17 08:32N 39°27' W 000°20'0 0.0
2016-May-17 07:32N 39°27' W 000°20'0 0.0
2016-May-17 06:32N 39°27' W 000°20'2 2.3
2016-May-17 05:33N 39°26' W 000°18'7 6.9
2016-May-17 04:33N 39°25' W 000°09'79 8.6
2016-May-16 19:18N 39°25' E 001°34'911.5
2016-May-16 18:32N 39°26' E 001°46'1311.7
2016-May-16 17:24N 39°26' E 002°03'1011.6
2016-May-16 16:33N 39°26' E 002°16'19 4.2
2016-May-16 12:08N 39°33' E 002°38'0 0.0
2016-May-16 11:26N 39°33' E 002°38'0 0.0
2016-May-16 10:32N 39°33' E 002°38'0 0.0
2016-May-16 09:32N 39°33' E 002°38'0 0.0
2016-May-16 08:32N 39°33' E 002°38'0 0.0
2016-May-16 07:32N 39°33' E 002°38'0 0.0
2016-May-16 06:32N 39°33' E 002°38'1 1.0
2016-May-16 05:33N 39°32' E 002°39'6 6.2
2016-May-16 04:33N 39°26' E 002°40'8 8.5
2016-May-16 03:33N 39°18' E 002°43'1110.9
2016-May-16 02:33N 39°08' E 002°50'9 9.4
2016-May-16 01:33N 39°07' E 003°02'1111.4
2016-May-16 00:33N 39°13' E 003°14'1511.0
2016-May-15 23:13N 39°21' E 003°30'1210.8
2016-May-15 22:05N 39°28' E 003°43'  

Dump ship's entire track history